createdAt,value
2022-11-28T00:00:08.244Z,17.75
2022-11-28T00:03:22.385Z,13.55
2022-11-28T00:06:30.686Z,15.70
2022-11-28T00:09:40.175Z,11.60
2022-11-28T00:12:48.466Z,11.85
2022-11-28T00:15:57.448Z,12.25
2022-11-28T00:19:05.790Z,12.35
2022-11-28T00:22:13.892Z,9.52
2022-11-28T00:25:23.535Z,10.52
2022-11-28T00:28:31.428Z,11.38
2022-11-28T00:31:42.746Z,11.82
2022-11-28T00:34:51.560Z,11.00
2022-11-28T00:37:59.828Z,10.93
2022-11-28T00:41:10.411Z,12.77
2022-11-28T00:44:18.330Z,11.68
2022-11-28T00:47:26.451Z,9.23
2022-11-28T00:50:34.582Z,9.50
2022-11-28T00:53:42.974Z,11.30
2022-11-28T00:56:52.373Z,9.48
2022-11-28T01:00:00.366Z,9.02
2022-11-28T01:03:08.161Z,8.90
2022-11-28T01:06:21.675Z,9.55
2022-11-28T01:09:29.712Z,10.25
2022-11-28T01:12:39.157Z,8.43
2022-11-28T01:15:47.093Z,9.73
2022-11-28T01:18:55.153Z,9.13
2022-11-28T01:22:03.026Z,10.45
2022-11-28T01:25:11.177Z,9.05
2022-11-28T01:28:20.530Z,10.45
2022-11-28T01:31:29.557Z,9.15
2022-11-28T01:34:37.514Z,8.90
2022-11-28T01:37:45.332Z,8.00
2022-11-28T01:40:53.509Z,9.52
2022-11-28T01:44:05.527Z,9.77
2022-11-28T01:47:13.735Z,7.85
2022-11-28T01:50:21.877Z,9.13
2022-11-28T01:53:30.481Z,8.18
2022-11-28T01:56:41.260Z,7.80
2022-11-28T01:59:54.950Z,10.15
2022-11-28T02:03:05.013Z,9.55
2022-11-28T02:06:13.900Z,10.82
2022-11-28T02:09:22.305Z,9.38
2022-11-28T02:12:36.803Z,6.80
2022-11-28T02:16:00.159Z,8.35
2022-11-28T02:19:29.490Z,7.18
2022-11-28T02:22:38.510Z,6.97
2022-11-28T02:26:12.067Z,8.10
2022-11-28T02:29:58.484Z,7.18
2022-11-28T02:33:15.958Z,6.40
2022-11-28T02:36:27.090Z,7.18
2022-11-28T02:39:38.541Z,7.72
2022-11-28T02:42:51.795Z,8.57
2022-11-28T02:46:02.095Z,5.97
2022-11-28T02:49:13.639Z,6.22
2022-11-28T02:52:23.338Z,6.97
2022-11-28T02:55:31.689Z,7.07
2022-11-28T02:58:39.834Z,7.45
2022-11-28T03:01:47.766Z,6.70
2022-11-28T03:04:59.135Z,7.15
2022-11-28T03:08:11.368Z,5.45
2022-11-28T03:11:21.162Z,7.22
2022-11-28T03:14:33.016Z,8.07
2022-11-28T03:17:44.335Z,9.27
2022-11-28T03:20:55.226Z,6.13
2022-11-28T03:24:06.031Z,8.73
2022-11-28T03:27:17.351Z,6.05
2022-11-28T03:30:27.215Z,6.53
2022-11-28T03:33:37.113Z,6.28
2022-11-28T03:36:48.320Z,7.47
2022-11-28T03:39:58.853Z,7.13
2022-11-28T03:43:10.963Z,5.57
2022-11-28T03:46:20.120Z,7.90
2022-11-28T03:49:30.217Z,7.30
2022-11-28T03:52:42.233Z,6.65
2022-11-28T03:55:51.411Z,6.13
2022-11-28T03:59:01.084Z,6.20
2022-11-28T04:02:15.079Z,5.47
2022-11-28T04:05:26.020Z,6.15
2022-11-28T04:08:37.778Z,6.75
2022-11-28T04:11:46.497Z,5.28
2022-11-28T04:14:56.533Z,7.93
2022-11-28T04:18:07.771Z,5.30
2022-11-28T04:21:18.074Z,6.35
2022-11-28T04:24:29.680Z,6.18
2022-11-28T04:27:40.182Z,5.25
2022-11-28T04:30:48.248Z,5.72
2022-11-28T04:33:59.352Z,7.38
2022-11-28T04:37:09.939Z,5.00
2022-11-28T04:40:19.377Z,5.60
2022-11-28T04:43:30.886Z,5.88
2022-11-28T04:46:40.516Z,8.38
2022-11-28T04:49:48.425Z,6.43
2022-11-28T04:52:58.786Z,5.75
2022-11-28T04:56:09.047Z,6.68
2022-11-28T04:59:16.851Z,7.88
2022-11-28T05:02:24.982Z,5.50
2022-11-28T05:05:32.884Z,5.88
2022-11-28T05:08:42.274Z,5.65
2022-11-28T05:11:51.767Z,6.78
2022-11-28T05:14:59.944Z,7.78
2022-11-28T05:18:07.871Z,5.13
2022-11-28T05:21:16.085Z,9.25
2022-11-28T05:24:27.950Z,7.10
2022-11-28T05:27:40.182Z,5.32
2022-11-28T05:30:57.751Z,5.32
2022-11-28T05:34:05.616Z,7.63
2022-11-28T05:37:13.747Z,5.03
2022-11-28T05:40:21.548Z,5.55
2022-11-28T05:43:31.153Z,6.32
2022-11-28T05:46:38.917Z,6.78
2022-11-28T05:49:47.598Z,4.47
2022-11-28T05:52:55.358Z,5.93
2022-11-28T05:56:07.564Z,6.57
2022-11-28T05:59:16.886Z,4.80
2022-11-28T06:02:25.084Z,4.95
2022-11-28T06:05:42.752Z,5.78
2022-11-28T06:08:52.333Z,5.45
2022-11-28T06:12:00.383Z,7.93
2022-11-28T06:15:10.809Z,6.90
2022-11-28T06:18:18.859Z,4.88
2022-11-28T06:21:27.268Z,5.03
2022-11-28T06:24:35.531Z,7.00
2022-11-28T06:27:43.754Z,5.88
2022-11-28T06:30:53.292Z,5.57
2022-11-28T06:34:01.551Z,5.90
2022-11-28T06:37:10.085Z,4.97
2022-11-28T06:40:18.084Z,6.40
2022-11-28T06:43:26.032Z,6.15
2022-11-28T06:46:35.649Z,6.95
2022-11-28T06:49:43.653Z,5.90
2022-11-28T06:52:51.803Z,6.75
2022-11-28T06:55:59.819Z,5.05
2022-11-28T06:59:07.884Z,6.45
2022-11-28T07:02:17.188Z,6.25
2022-11-28T07:05:27.756Z,5.32
2022-11-28T07:08:35.755Z,5.90
2022-11-28T07:11:43.645Z,7.05
2022-11-28T07:14:51.704Z,8.23
2022-11-28T07:18:00.979Z,5.70
2022-11-28T07:21:09.307Z,6.82
2022-11-28T07:24:17.549Z,6.95
2022-11-28T07:27:25.422Z,7.45
2022-11-28T07:30:33.499Z,5.80
2022-11-28T07:33:43.687Z,6.80
2022-11-28T07:36:51.735Z,7.18
2022-11-28T07:39:59.401Z,6.57
2022-11-28T07:43:07.143Z,4.97
2022-11-28T07:46:16.237Z,6.03
2022-11-28T07:49:25.287Z,5.85
2022-11-28T07:52:33.407Z,8.85
2022-11-28T07:55:41.269Z,5.70
2022-11-28T07:58:49.584Z,8.73
2022-11-28T08:01:57.754Z,6.35
2022-11-28T08:05:07.914Z,5.82
2022-11-28T08:08:16.352Z,5.22
2022-11-28T08:11:25.081Z,5.53
2022-11-28T08:14:33.062Z,5.75
2022-11-28T08:17:40.876Z,5.25
2022-11-28T08:20:50.357Z,4.00
2022-11-28T08:23:59.896Z,6.68
2022-11-28T08:27:08.376Z,5.15
2022-11-28T08:30:16.746Z,5.15
2022-11-28T08:33:25.160Z,5.18
2022-11-28T08:36:34.736Z,4.70
2022-11-28T08:39:42.828Z,4.40
2022-11-28T08:42:50.848Z,5.97
2022-11-28T08:45:59.801Z,5.65
2022-11-28T08:49:08.507Z,4.78
2022-11-28T08:52:17.920Z,5.07
2022-11-28T08:55:32.092Z,4.10
2022-11-28T08:58:40.812Z,5.35
2022-11-28T09:01:48.984Z,5.82
2022-11-28T09:04:56.779Z,6.10
2022-11-28T09:08:10.351Z,4.88
2022-11-28T09:11:20.754Z,4.93
2022-11-28T09:14:28.695Z,6.22
2022-11-28T09:17:36.610Z,6.53
2022-11-28T09:20:44.353Z,4.50
2022-11-28T09:23:55.676Z,4.30
2022-11-28T09:27:03.994Z,6.63
2022-11-28T09:30:12.366Z,4.00
2022-11-28T09:33:20.345Z,6.00
2022-11-28T09:36:28.781Z,5.10
2022-11-28T09:39:57.116Z,5.32
2022-11-28T09:43:05.929Z,6.25
2022-11-28T09:46:16.414Z,4.80
2022-11-28T09:49:38.544Z,5.28
2022-11-28T09:52:50.940Z,5.15
2022-11-28T09:56:03.408Z,4.53
2022-11-28T09:59:14.243Z,4.88
2022-11-28T10:02:26.609Z,5.47
2022-11-28T10:05:37.157Z,6.38
2022-11-28T10:08:52.892Z,4.35
2022-11-28T10:12:14.884Z,5.97
2022-11-28T10:15:45.878Z,4.20
2022-11-28T10:18:55.134Z,4.68
2022-11-28T10:22:03.809Z,4.63
2022-11-28T10:25:15.276Z,5.63
2022-11-28T10:28:27.395Z,10.15
2022-11-28T10:31:36.684Z,4.65
2022-11-28T10:34:46.720Z,5.05
2022-11-28T10:37:55.032Z,4.18
2022-11-28T10:41:05.973Z,4.18
2022-11-28T10:44:21.507Z,7.85
2022-11-28T10:47:54.310Z,4.68
2022-11-28T10:51:06.452Z,6.93
2022-11-28T10:54:20.562Z,6.68
2022-11-28T10:57:30.089Z,4.07
2022-11-28T11:00:39.625Z,4.60
2022-11-28T11:03:47.683Z,6.97
2022-11-28T11:07:16.169Z,5.35
2022-11-28T11:10:26.511Z,3.95
2022-11-28T11:13:35.300Z,4.80
2022-11-28T11:16:51.432Z,4.47
2022-11-28T11:19:59.340Z,4.10
2022-11-28T11:23:14.331Z,3.75
2022-11-28T11:26:24.492Z,4.72
2022-11-28T11:29:35.506Z,3.65
2022-11-28T11:32:51.360Z,4.00
2022-11-28T11:35:59.516Z,4.10
2022-11-28T11:39:11.883Z,4.35
2022-11-28T11:42:23.392Z,3.65
2022-11-28T11:45:33.243Z,3.92
2022-11-28T11:48:43.690Z,3.92
2022-11-28T11:51:56.436Z,4.50
2022-11-28T11:55:08.028Z,3.08
2022-11-28T11:58:19.573Z,4.32
2022-11-28T12:01:27.282Z,3.22
2022-11-28T12:04:52.508Z,4.30
2022-11-28T12:08:04.468Z,4.03
2022-11-28T12:11:15.828Z,4.88
2022-11-28T12:14:30.946Z,4.07
2022-11-28T12:17:54.494Z,3.58
2022-11-28T12:21:13.818Z,3.50
2022-11-28T12:24:23.156Z,2.90
2022-11-28T12:27:38.029Z,4.32
2022-11-28T12:30:54.820Z,3.03
2022-11-28T12:34:07.520Z,2.50
2022-11-28T12:37:29.451Z,4.22
2022-11-28T12:40:51.844Z,3.60
2022-11-28T12:44:03.643Z,3.17
2022-11-28T12:47:13.971Z,3.30
2022-11-28T12:50:27.973Z,2.92
2022-11-28T12:53:54.550Z,4.32
2022-11-28T12:57:05.162Z,3.80
2022-11-28T13:00:15.585Z,4.00
2022-11-28T13:03:32.735Z,2.42
2022-11-28T13:06:43.271Z,3.35
2022-11-28T13:10:00.968Z,3.20
2022-11-28T13:13:10.025Z,3.38
2022-11-28T13:16:26.457Z,3.13
2022-11-28T13:19:37.710Z,3.88
2022-11-28T13:22:54.255Z,3.08
2022-11-28T13:26:06.175Z,3.10
2022-11-28T13:29:20.566Z,3.30
2022-11-28T13:32:31.335Z,2.88
2022-11-28T13:35:39.416Z,3.75
2022-11-28T13:39:11.335Z,3.42
2022-11-28T13:45:55.063Z,6.30
2022-11-28T13:49:20.666Z,3.15
2022-11-28T13:52:32.890Z,4.18
2022-11-28T13:55:44.663Z,2.55
2022-11-28T13:58:54.442Z,3.78
2022-11-28T14:02:02.781Z,2.83
2022-11-28T14:05:26.564Z,3.22
2022-11-28T14:08:36.564Z,3.05
2022-11-28T14:11:52.750Z,2.75
2022-11-28T14:15:08.699Z,3.17
2022-11-28T14:22:05.363Z,3.38
2022-11-28T14:25:17.854Z,2.05
2022-11-28T14:28:27.016Z,2.87
2022-11-28T14:31:38.616Z,3.42
2022-11-28T14:34:47.769Z,2.92
2022-11-28T14:37:57.487Z,2.17
2022-11-28T14:41:06.169Z,3.83
2022-11-28T14:44:46.000Z,3.20
2022-11-28T14:48:20.810Z,3.15
2022-11-28T14:52:23.065Z,2.78
2022-11-28T14:55:30.846Z,2.92
2022-11-28T14:58:38.971Z,4.40
2022-11-28T15:01:52.935Z,2.78
2022-11-28T15:05:13.312Z,1.95
2022-11-28T15:08:30.029Z,3.78
2022-11-28T15:11:58.711Z,2.97
2022-11-28T15:15:08.643Z,2.40
2022-11-28T15:18:16.950Z,3.10
2022-11-28T15:21:26.084Z,2.40
2022-11-28T15:24:34.922Z,3.03
2022-11-28T15:27:43.050Z,2.15
2022-11-28T15:30:52.247Z,3.03
2022-11-28T15:34:00.588Z,1.63
2022-11-28T15:37:17.554Z,1.75
2022-11-28T15:40:27.601Z,2.58
2022-11-28T15:43:35.690Z,2.40
2022-11-28T15:46:43.816Z,2.25
2022-11-28T15:50:03.011Z,2.50
2022-11-28T15:53:17.908Z,2.50
2022-11-28T15:56:26.123Z,2.15
2022-11-28T15:59:34.170Z,1.88
2022-11-28T16:02:42.438Z,2.17
2022-11-28T16:05:52.124Z,2.83
2022-11-28T16:09:03.895Z,2.13
2022-11-28T16:12:13.444Z,2.55
2022-11-28T16:15:22.311Z,3.08
2022-11-28T16:18:30.389Z,1.92
2022-11-28T16:21:41.373Z,2.20
2022-11-28T16:24:51.559Z,2.45
2022-11-28T16:27:59.471Z,2.00
2022-11-28T16:31:12.259Z,3.40
2022-11-28T16:34:44.712Z,2.35
2022-11-28T16:37:53.145Z,2.72
2022-11-28T16:41:02.643Z,3.42
2022-11-28T16:44:13.069Z,2.58
2022-11-28T16:47:26.365Z,2.38
2022-11-28T16:50:34.426Z,3.40
2022-11-28T16:53:44.109Z,1.98
2022-11-28T16:56:57.426Z,2.60
2022-11-28T17:00:06.219Z,2.92
2022-11-28T17:04:00.009Z,2.30
2022-11-28T17:07:09.823Z,2.22
2022-11-28T17:10:17.796Z,2.25
2022-11-28T17:13:30.386Z,2.10
2022-11-28T17:16:38.581Z,2.83
2022-11-28T17:19:46.818Z,2.75
2022-11-28T17:22:56.388Z,3.15
2022-11-28T17:26:04.463Z,3.40
2022-11-28T17:29:14.657Z,3.05
2022-11-28T17:32:22.403Z,3.40
2022-11-28T17:35:30.673Z,2.63
2022-11-28T17:38:38.780Z,2.58
2022-11-28T17:41:46.815Z,2.55
2022-11-28T17:44:56.328Z,2.80
2022-11-28T17:48:04.175Z,3.53
2022-11-28T17:51:12.746Z,2.88
2022-11-28T17:54:21.685Z,2.00
2022-11-28T17:57:30.119Z,2.60
2022-11-28T18:00:39.518Z,2.53
2022-11-28T18:03:47.781Z,2.80
2022-11-28T18:06:55.809Z,2.63
2022-11-28T18:10:04.047Z,2.83
2022-11-28T18:13:12.379Z,2.63
2022-11-28T18:16:22.823Z,3.30
2022-11-28T18:19:30.839Z,3.10
2022-11-28T18:22:38.867Z,2.92
2022-11-28T18:25:46.910Z,3.47
2022-11-28T18:28:55.750Z,2.67
2022-11-28T18:32:06.697Z,3.38
2022-11-28T18:35:14.637Z,2.88
2022-11-28T18:38:22.773Z,2.80
2022-11-28T18:41:31.081Z,3.92
2022-11-28T18:44:39.271Z,3.25
2022-11-28T18:47:49.087Z,3.60
2022-11-28T18:50:57.179Z,2.90
2022-11-28T18:54:05.928Z,2.58
2022-11-28T18:57:15.445Z,2.72
2022-11-28T19:00:24.116Z,2.53
2022-11-28T19:03:33.556Z,3.60
2022-11-28T19:06:42.899Z,3.65
2022-11-28T19:09:50.801Z,4.30
2022-11-28T19:12:59.315Z,3.53
2022-11-28T19:16:07.961Z,3.60
2022-11-28T19:19:17.788Z,3.75
2022-11-28T19:22:26.561Z,3.33
2022-11-28T19:25:35.782Z,3.08
2022-11-28T19:28:43.588Z,3.38
2022-11-28T19:31:51.475Z,3.92
2022-11-28T19:35:00.888Z,5.18
2022-11-28T19:38:08.884Z,3.40
2022-11-28T19:41:17.955Z,3.22
2022-11-28T19:44:29.023Z,4.65
2022-11-28T19:47:37.256Z,3.10
2022-11-28T19:50:50.459Z,16.77
2022-11-28T19:54:03.150Z,4.63
2022-11-28T19:57:12.813Z,9.35
2022-11-28T20:00:22.589Z,4.20
2022-11-28T20:03:30.737Z,4.38
2022-11-28T20:06:40.345Z,3.55
2022-11-28T20:09:50.351Z,3.65
2022-11-28T20:12:58.329Z,5.93
2022-11-28T20:16:07.093Z,3.38
2022-11-28T20:19:15.061Z,4.07
2022-11-28T20:22:26.997Z,3.38
2022-11-28T20:25:34.865Z,2.92
2022-11-28T20:28:43.983Z,4.15
2022-11-28T20:31:54.761Z,3.03
2022-11-28T20:35:03.475Z,3.58
2022-11-28T20:38:12.915Z,3.45
2022-11-28T20:41:21.683Z,5.13
2022-11-28T20:44:29.779Z,4.22
2022-11-28T20:47:37.842Z,4.68
2022-11-28T20:50:45.855Z,3.55
2022-11-28T20:53:55.220Z,3.75
2022-11-28T20:57:20.867Z,4.28
2022-11-28T21:00:29.673Z,2.65
2022-11-28T21:03:37.960Z,3.35
2022-11-28T21:06:47.165Z,3.30
2022-11-28T21:09:59.804Z,3.38
2022-11-28T21:13:07.591Z,3.05
2022-11-28T21:16:16.706Z,3.10
2022-11-28T21:19:24.577Z,3.80
2022-11-28T21:22:32.682Z,4.28
2022-11-28T21:25:42.397Z,3.85
2022-11-28T21:28:52.559Z,3.88
2022-11-28T21:32:00.584Z,4.07
2022-11-28T21:35:09.220Z,4.40
2022-11-28T21:38:17.520Z,4.82
2022-11-28T21:41:28.234Z,4.30
2022-11-28T21:44:36.432Z,4.43
2022-11-28T21:47:44.471Z,4.07
2022-11-28T21:50:52.712Z,3.85
2022-11-28T21:54:02.016Z,4.03
2022-11-28T21:57:11.491Z,4.30
2022-11-28T22:00:45.686Z,4.00
2022-11-28T22:03:47.638Z,3.72
2022-11-28T22:06:55.919Z,4.45
2022-11-28T22:10:05.828Z,4.18
2022-11-28T22:13:15.424Z,3.15
2022-11-28T22:16:24.561Z,5.10
2022-11-28T22:19:33.832Z,4.30
2022-11-28T22:22:41.694Z,4.65
2022-11-28T22:25:53.081Z,3.65
2022-11-28T22:29:03.933Z,4.13
2022-11-28T22:32:12.947Z,3.53
2022-11-28T22:35:21.114Z,4.93
2022-11-28T22:38:29.141Z,3.45
2022-11-28T22:41:37.311Z,4.78
2022-11-28T22:44:47.002Z,3.50
2022-11-28T22:47:55.491Z,4.13
2022-11-28T22:51:07.436Z,3.35
2022-11-28T22:54:15.410Z,4.47
2022-11-28T22:57:23.334Z,4.18
2022-11-28T23:00:32.586Z,5.35
2022-11-28T23:03:40.641Z,4.63
2022-11-28T23:06:48.905Z,6.20
2022-11-28T23:09:57.043Z,5.00
2022-11-28T23:13:05.218Z,3.75
2022-11-28T23:16:15.967Z,3.67
2022-11-28T23:19:24.230Z,4.57
2022-11-28T23:22:34.199Z,4.68
2022-11-28T23:25:42.457Z,3.78
2022-11-28T23:28:50.506Z,5.43
2022-11-28T23:31:59.597Z,4.70
2022-11-28T23:35:10.233Z,4.38
2022-11-28T23:38:18.638Z,4.78
2022-11-28T23:41:26.973Z,5.57
2022-11-28T23:44:35.152Z,3.95
2022-11-28T23:47:44.368Z,3.90
2022-11-28T23:50:52.343Z,5.30
2022-11-28T23:54:00.324Z,3.88
2022-11-28T23:57:08.529Z,6.53
